createdAt,value
2019-02-20T00:00:18.063Z,3.40
2019-02-20T00:01:17.995Z,3.32
2019-02-20T00:02:17.926Z,3.41
2019-02-20T00:03:17.880Z,3.40
2019-02-20T00:04:17.818Z,3.37
2019-02-20T00:05:17.758Z,3.35
2019-02-20T00:06:17.742Z,3.36
2019-02-20T00:07:17.660Z,3.43
2019-02-20T00:08:17.605Z,3.55
2019-02-20T00:09:17.533Z,3.46
2019-02-20T00:10:17.466Z,3.52
2019-02-20T00:11:17.456Z,3.43
2019-02-20T00:12:17.373Z,3.40
2019-02-20T00:13:17.292Z,3.55
2019-02-20T00:14:17.241Z,3.47
2019-02-20T00:15:17.232Z,3.40
2019-02-20T00:16:17.173Z,3.40
2019-02-20T00:17:17.078Z,3.37
2019-02-20T00:18:17.021Z,3.47
2019-02-20T00:19:16.963Z,3.35
2019-02-20T00:20:16.908Z,3.36
2019-02-20T00:21:16.884Z,3.40
2019-02-20T00:22:16.787Z,3.36
2019-02-20T00:23:16.738Z,3.41
2019-02-20T00:24:16.693Z,3.37
2019-02-20T00:25:16.636Z,3.35
2019-02-20T00:26:16.606Z,3.40
2019-02-20T00:27:16.516Z,3.41
2019-02-20T00:28:16.446Z,3.33
2019-02-20T00:29:16.413Z,3.36
2019-02-20T00:30:16.355Z,3.36
2019-02-20T00:31:16.341Z,3.37
2019-02-20T00:32:16.227Z,3.36
2019-02-20T00:33:16.178Z,3.32
2019-02-20T00:34:16.152Z,3.37
2019-02-20T00:35:16.077Z,3.40
2019-02-20T00:36:16.030Z,3.35
2019-02-20T00:37:15.962Z,3.46
2019-02-20T00:38:15.911Z,3.36
2019-02-20T00:39:15.829Z,3.35
2019-02-20T00:40:15.772Z,3.37
2019-02-20T00:41:15.764Z,3.40
2019-02-20T00:42:15.668Z,3.33
2019-02-20T00:43:15.610Z,3.32
2019-02-20T00:44:15.559Z,3.37
2019-02-20T00:45:15.486Z,3.33
2019-02-20T00:46:15.464Z,3.25
2019-02-20T00:47:15.395Z,3.28
2019-02-20T00:48:15.333Z,3.32
2019-02-20T00:49:15.262Z,3.28
2019-02-20T00:50:15.240Z,3.29
2019-02-20T00:51:15.173Z,3.35
2019-02-20T00:52:15.102Z,3.29
2019-02-20T00:53:15.044Z,3.41
2019-02-20T00:54:14.992Z,3.40
2019-02-20T00:55:14.944Z,3.40
2019-02-20T00:56:14.901Z,3.36
2019-02-20T00:57:14.817Z,3.37
2019-02-20T00:58:14.757Z,3.37
2019-02-20T00:59:16.814Z,3.43
2019-02-20T01:00:14.661Z,3.37
2019-02-20T01:01:14.629Z,3.37
2019-02-20T01:02:14.541Z,3.41
2019-02-20T01:03:14.487Z,3.37
2019-02-20T01:04:14.446Z,3.36
2019-02-20T01:05:14.366Z,3.35
2019-02-20T01:06:14.336Z,3.35
2019-02-20T01:07:14.262Z,3.37
2019-02-20T01:08:14.193Z,3.48
2019-02-20T01:09:14.150Z,3.48
2019-02-20T01:10:14.114Z,3.54
2019-02-20T01:11:14.091Z,3.47
2019-02-20T01:12:13.999Z,3.51
2019-02-20T01:13:13.917Z,3.51
2019-02-20T01:14:13.876Z,3.56
2019-02-20T01:15:13.809Z,3.59
2019-02-20T01:16:13.774Z,3.61
2019-02-20T01:17:13.732Z,3.64
2019-02-20T01:18:13.670Z,3.66
2019-02-20T01:19:13.581Z,3.68
2019-02-20T01:20:13.582Z,3.64
2019-02-20T01:21:13.506Z,3.74
2019-02-20T01:22:13.454Z,3.64
2019-02-20T01:23:13.371Z,3.72
2019-02-20T01:24:13.309Z,3.72
2019-02-20T01:25:13.258Z,3.66
2019-02-20T01:26:13.193Z,3.65
2019-02-20T01:27:13.175Z,3.72
2019-02-20T01:28:13.086Z,3.79
2019-02-20T01:29:13.019Z,3.76
2019-02-20T01:30:12.964Z,3.84
2019-02-20T01:31:12.903Z,3.83
2019-02-20T01:32:12.972Z,3.90
2019-02-20T01:33:12.823Z,3.82
2019-02-20T01:34:12.743Z,3.80
2019-02-20T01:35:12.687Z,3.80
2019-02-20T01:36:12.626Z,3.83
2019-02-20T01:37:12.599Z,3.84
2019-02-20T01:38:12.515Z,3.95
2019-02-20T01:39:12.449Z,3.94
2019-02-20T01:40:12.403Z,4.01
2019-02-20T01:41:12.377Z,3.98
2019-02-20T01:42:12.333Z,4.00
2019-02-20T01:43:12.234Z,4.08
2019-02-20T01:44:12.171Z,4.01
2019-02-20T01:45:12.135Z,3.95
2019-02-20T01:46:12.068Z,4.08
2019-02-20T01:47:12.060Z,4.12
2019-02-20T01:48:11.953Z,4.12
2019-02-20T01:49:11.894Z,4.15
2019-02-20T01:50:11.849Z,4.13
2019-02-20T01:51:11.787Z,4.26
2019-02-20T01:52:11.743Z,4.22
2019-02-20T01:53:11.671Z,4.16
2019-02-20T01:54:11.627Z,4.19
2019-02-20T01:55:11.557Z,4.23
2019-02-20T01:56:11.497Z,4.13
2019-02-20T01:57:11.475Z,4.28
2019-02-20T01:58:11.394Z,4.19
2019-02-20T01:59:11.356Z,4.28
2019-02-20T02:00:11.281Z,4.22
2019-02-20T02:01:11.221Z,4.26
2019-02-20T02:02:11.231Z,4.31
2019-02-20T02:03:11.103Z,4.34
2019-02-20T02:04:11.057Z,4.31
2019-02-20T02:05:15.541Z,4.22
2019-02-20T02:06:10.948Z,4.34
2019-02-20T02:07:10.917Z,4.28
2019-02-20T02:08:10.829Z,4.20
2019-02-20T02:09:10.767Z,4.28
2019-02-20T02:10:10.726Z,4.31
2019-02-20T02:11:10.655Z,4.31
2019-02-20T02:12:10.644Z,4.27
2019-02-20T02:13:10.559Z,4.27
2019-02-20T02:14:10.499Z,4.33
2019-02-20T02:15:10.452Z,4.27
2019-02-20T02:16:10.465Z,4.27
2019-02-20T02:17:10.353Z,4.34
2019-02-20T02:18:10.282Z,4.37
2019-02-20T02:19:10.208Z,4.34
2019-02-20T02:20:10.198Z,4.34
2019-02-20T02:21:10.108Z,4.43
2019-02-20T02:22:10.046Z,4.43
2019-02-20T02:23:19.455Z,4.40
2019-02-20T02:24:09.953Z,4.38
2019-02-20T02:25:09.890Z,4.48
2019-02-20T02:26:11.101Z,4.34
2019-02-20T02:27:09.764Z,4.35
2019-02-20T02:28:09.767Z,4.37
2019-02-20T02:29:09.657Z,4.40
2019-02-20T02:30:09.603Z,4.40
2019-02-20T02:31:09.551Z,4.37
2019-02-20T02:32:09.513Z,4.43
2019-02-20T02:33:09.469Z,4.41
2019-02-20T02:34:09.375Z,4.37
2019-02-20T02:35:09.331Z,4.40
2019-02-20T02:36:09.276Z,4.34
2019-02-20T02:37:09.225Z,4.46
2019-02-20T02:38:09.187Z,4.37
2019-02-20T02:39:09.101Z,4.31
2019-02-20T02:40:09.057Z,4.35
2019-02-20T02:41:08.994Z,4.37
2019-02-20T02:42:08.947Z,4.34
2019-02-20T02:43:08.933Z,4.37
2019-02-20T02:44:08.823Z,4.43
2019-02-20T02:45:08.771Z,4.41
2019-02-20T02:46:08.727Z,4.35
2019-02-20T02:47:08.663Z,4.40
2019-02-20T02:48:08.630Z,4.51
2019-02-20T02:49:08.556Z,4.34
2019-02-20T02:50:08.516Z,4.33
2019-02-20T02:51:08.453Z,4.46
2019-02-20T02:52:08.375Z,4.49
2019-02-20T02:53:08.376Z,4.48
2019-02-20T02:54:08.283Z,4.49
2019-02-20T02:55:08.230Z,4.52
2019-02-20T02:56:08.174Z,4.52
2019-02-20T02:57:08.128Z,4.51
2019-02-20T02:58:08.084Z,4.49
2019-02-20T02:59:07.990Z,4.55
2019-02-20T03:00:07.954Z,4.55
2019-02-20T03:01:07.874Z,4.52
2019-02-20T03:02:07.837Z,4.56
2019-02-20T03:03:07.816Z,4.56
2019-02-20T03:04:07.709Z,4.53
2019-02-20T03:05:07.653Z,4.53
2019-02-20T03:06:07.622Z,4.53
2019-02-20T03:07:07.549Z,4.55
2019-02-20T03:08:07.548Z,4.59
2019-02-20T03:09:07.446Z,4.49
2019-02-20T03:10:07.403Z,4.59
2019-02-20T03:11:07.331Z,4.56
2019-02-20T03:12:07.273Z,4.61
2019-02-20T03:13:07.241Z,4.58
2019-02-20T03:14:07.169Z,4.66
2019-02-20T03:15:07.155Z,4.59
2019-02-20T03:16:07.057Z,4.58
2019-02-20T03:17:06.984Z,4.66
2019-02-20T03:18:06.968Z,4.56
2019-02-20T03:19:06.888Z,4.61
2019-02-20T03:20:06.813Z,4.63
2019-02-20T03:21:06.773Z,4.69
2019-02-20T03:22:06.750Z,4.70
2019-02-20T03:23:06.755Z,4.59
2019-02-20T03:24:06.601Z,4.61
2019-02-20T03:25:06.623Z,4.69
2019-02-20T03:26:06.513Z,4.70
2019-02-20T03:27:06.445Z,4.67
2019-02-20T03:28:06.376Z,4.59
2019-02-20T03:29:06.380Z,4.59
2019-02-20T03:30:06.285Z,4.66
2019-02-20T03:31:06.224Z,4.66
2019-02-20T03:32:06.190Z,4.71
2019-02-20T03:33:06.123Z,4.63
2019-02-20T03:34:08.751Z,4.66
2019-02-20T03:35:06.003Z,4.61
2019-02-20T03:36:05.939Z,4.67
2019-02-20T03:37:05.917Z,4.66
2019-02-20T03:38:05.861Z,4.61
2019-02-20T03:39:05.823Z,4.69
2019-02-20T03:40:05.713Z,4.67
2019-02-20T03:41:05.707Z,4.64
2019-02-20T03:42:05.603Z,4.77
2019-02-20T03:43:05.587Z,4.63
2019-02-20T03:44:05.531Z,4.66
2019-02-20T03:45:05.449Z,4.67
2019-02-20T03:46:05.379Z,4.79
2019-02-20T03:47:05.331Z,4.61
2019-02-20T03:48:05.270Z,4.64
2019-02-20T03:49:05.252Z,4.64
2019-02-20T03:50:05.163Z,4.59
2019-02-20T03:51:05.105Z,4.63
2019-02-20T03:52:05.063Z,4.69
2019-02-20T03:53:04.981Z,4.66
2019-02-20T03:54:05.005Z,4.66
2019-02-20T03:55:04.906Z,4.63
2019-02-20T03:56:04.832Z,4.64
2019-02-20T03:57:04.768Z,4.64
2019-02-20T03:58:04.716Z,4.71
2019-02-20T03:59:04.723Z,4.70
2019-02-20T04:00:04.645Z,4.56
2019-02-20T04:01:04.558Z,4.64
2019-02-20T04:02:04.555Z,4.59
2019-02-20T04:03:04.440Z,4.64
2019-02-20T04:04:04.407Z,4.55
2019-02-20T04:05:04.323Z,4.56
2019-02-20T04:06:04.275Z,4.63
2019-02-20T04:07:04.201Z,4.67
2019-02-20T04:08:04.212Z,4.52
2019-02-20T04:09:04.131Z,4.58
2019-02-20T04:10:04.045Z,4.51
2019-02-20T04:11:04.050Z,4.52
2019-02-20T04:12:03.943Z,4.49
2019-02-20T04:13:03.958Z,4.59
2019-02-20T04:14:03.852Z,4.58
2019-02-20T04:15:03.773Z,4.58
2019-02-20T04:16:03.730Z,4.61
2019-02-20T04:17:03.654Z,4.58
2019-02-20T04:18:03.648Z,4.64
2019-02-20T04:19:03.570Z,4.55
2019-02-20T04:20:03.514Z,4.58
2019-02-20T04:21:03.631Z,4.61
2019-02-20T04:22:03.374Z,4.58
2019-02-20T04:23:03.328Z,4.58
2019-02-20T04:24:03.320Z,4.64
2019-02-20T04:25:03.213Z,4.59
2019-02-20T04:26:03.163Z,4.69
2019-02-20T04:27:03.139Z,4.55
2019-02-20T04:28:03.051Z,4.61
2019-02-20T04:29:02.987Z,4.56
2019-02-20T04:30:02.975Z,4.55
2019-02-20T04:31:02.873Z,4.61
2019-02-20T04:32:02.823Z,4.55
2019-02-20T04:33:02.763Z,4.61
2019-02-20T04:34:02.710Z,4.61
2019-02-20T04:35:02.688Z,4.63
2019-02-20T04:36:02.607Z,4.63
2019-02-20T04:37:02.544Z,4.61
2019-02-20T04:38:02.510Z,4.59
2019-02-20T04:39:02.449Z,4.58
2019-02-20T04:40:02.421Z,4.61
2019-02-20T04:41:02.328Z,4.55
2019-02-20T04:42:02.273Z,4.58
2019-02-20T04:43:02.211Z,4.67
2019-02-20T04:44:02.157Z,4.53
2019-02-20T04:45:02.135Z,4.64
2019-02-20T04:46:02.049Z,4.64
2019-02-20T04:47:01.989Z,4.58
2019-02-20T04:48:01.942Z,4.66
2019-02-20T04:49:01.893Z,4.59
2019-02-20T04:50:01.862Z,4.61
2019-02-20T04:51:01.779Z,4.58
2019-02-20T04:52:01.736Z,4.64
2019-02-20T04:53:01.665Z,4.61
2019-02-20T04:54:01.631Z,4.61
2019-02-20T04:55:01.585Z,4.63
2019-02-20T04:56:01.497Z,4.61
2019-02-20T04:57:01.456Z,4.61
2019-02-20T04:58:01.372Z,4.63
2019-02-20T04:59:01.348Z,4.67
2019-02-20T05:00:01.301Z,4.59
2019-02-20T05:01:01.208Z,4.61
2019-02-20T05:02:01.212Z,4.67
2019-02-20T05:03:01.120Z,4.55
2019-02-20T05:04:01.050Z,4.61
2019-02-20T05:05:01.013Z,4.67
2019-02-20T05:06:00.935Z,4.64
2019-02-20T05:07:08.815Z,4.64
2019-02-20T05:08:00.833Z,4.66
2019-02-20T05:09:00.769Z,4.59
2019-02-20T05:10:00.741Z,4.69
2019-02-20T05:11:00.665Z,4.63
2019-02-20T05:12:00.619Z,4.64
2019-02-20T05:13:00.553Z,4.61
2019-02-20T05:14:00.498Z,4.66
2019-02-20T05:15:00.461Z,4.59
2019-02-20T05:16:00.382Z,4.58
2019-02-20T05:17:00.327Z,4.61
2019-02-20T05:18:00.261Z,4.49
2019-02-20T05:19:00.212Z,4.48
2019-02-20T05:20:00.328Z,4.53
2019-02-20T05:21:00.114Z,4.51
2019-02-20T05:22:00.056Z,4.53
2019-02-20T05:22:59.989Z,4.49
2019-02-20T05:23:59.929Z,4.55
2019-02-20T05:24:59.901Z,4.49
2019-02-20T05:25:59.827Z,4.52
2019-02-20T05:26:59.772Z,4.49
2019-02-20T05:27:59.718Z,4.51
2019-02-20T05:28:59.663Z,4.53
2019-02-20T05:29:59.631Z,4.43
2019-02-20T05:30:59.545Z,4.51
2019-02-20T05:31:59.499Z,4.52
2019-02-20T05:32:59.436Z,4.48
2019-02-20T05:33:59.407Z,4.51
2019-02-20T05:34:59.367Z,4.37
2019-02-20T05:35:59.288Z,4.35
2019-02-20T05:36:59.216Z,4.41
2019-02-20T05:37:59.157Z,4.37
2019-02-20T05:38:59.101Z,4.35
2019-02-20T05:39:59.038Z,4.38
2019-02-20T05:40:59.011Z,4.37
2019-02-20T05:41:58.942Z,4.34
2019-02-20T05:42:58.880Z,4.33
2019-02-20T05:43:58.828Z,4.33
2019-02-20T05:44:58.774Z,4.49
2019-02-20T05:45:58.731Z,4.37
2019-02-20T05:46:58.650Z,4.41
2019-02-20T05:47:58.630Z,4.37
2019-02-20T05:48:58.550Z,4.37
2019-02-20T05:49:58.484Z,4.34
2019-02-20T05:50:58.457Z,4.34
2019-02-20T05:51:58.393Z,4.31
2019-02-20T05:52:58.319Z,4.30
2019-02-20T05:53:58.266Z,4.27
2019-02-20T05:54:58.201Z,4.30
2019-02-20T05:55:58.214Z,4.28
2019-02-20T05:56:58.100Z,4.28
2019-02-20T05:57:58.057Z,4.22
2019-02-20T05:58:57.985Z,4.28
2019-02-20T05:59:57.957Z,4.26
2019-02-20T06:00:57.901Z,4.16
2019-02-20T06:01:57.828Z,4.09
2019-02-20T06:02:57.776Z,4.13
2019-02-20T06:03:57.713Z,4.12
2019-02-20T06:04:57.720Z,4.12
2019-02-20T06:05:57.642Z,4.15
2019-02-20T06:06:57.545Z,4.09
2019-02-20T06:07:57.480Z,4.02
2019-02-20T06:08:57.442Z,4.04
2019-02-20T06:09:57.377Z,4.04
2019-02-20T06:10:57.377Z,4.01
2019-02-20T06:11:57.269Z,3.95
2019-02-20T06:12:57.214Z,3.90
2019-02-20T06:13:57.163Z,3.91
2019-02-20T06:14:57.099Z,3.82
2019-02-20T06:15:57.075Z,3.83
2019-02-20T06:16:56.982Z,3.86
2019-02-20T06:17:56.940Z,3.84
2019-02-20T06:18:56.861Z,3.80
2019-02-20T06:19:56.818Z,3.73
2019-02-20T06:20:56.787Z,3.65
2019-02-20T06:21:56.702Z,3.68
2019-02-20T06:22:56.643Z,3.72
2019-02-20T06:23:56.580Z,3.77
2019-02-20T06:24:56.548Z,3.66
2019-02-20T06:25:56.505Z,3.77
2019-02-20T06:26:56.406Z,3.74
2019-02-20T06:27:56.365Z,3.74
2019-02-20T06:28:56.306Z,3.76
2019-02-20T06:29:56.266Z,3.79
2019-02-20T06:30:56.225Z,3.83
2019-02-20T06:31:56.137Z,3.76
2019-02-20T06:32:56.073Z,3.79
2019-02-20T06:33:56.030Z,3.83
2019-02-20T06:34:55.974Z,3.84
2019-02-20T06:35:55.976Z,3.82
2019-02-20T06:36:55.869Z,3.79
2019-02-20T06:37:55.804Z,3.95
2019-02-20T06:38:55.770Z,3.88
2019-02-20T06:39:55.718Z,3.98
2019-02-20T06:40:55.655Z,4.04
2019-02-20T06:41:55.575Z,3.98
2019-02-20T06:42:55.525Z,4.04
2019-02-20T06:43:55.467Z,4.04
2019-02-20T06:44:55.401Z,4.10
2019-02-20T06:45:55.397Z,4.01
2019-02-20T06:46:55.285Z,4.12
2019-02-20T06:47:55.248Z,4.15
2019-02-20T06:48:55.180Z,4.13
2019-02-20T06:49:55.138Z,4.10
2019-02-20T06:50:55.108Z,4.26
2019-02-20T06:51:55.035Z,4.26
2019-02-20T06:52:54.953Z,4.27
2019-02-20T06:53:54.906Z,4.22
2019-02-20T06:54:54.843Z,4.19
2019-02-20T06:55:54.820Z,4.26
2019-02-20T06:56:54.732Z,4.34
2019-02-20T06:57:54.690Z,4.37
2019-02-20T06:58:54.625Z,4.28
2019-02-20T06:59:54.566Z,4.43
2019-02-20T07:00:54.554Z,4.34
2019-02-20T07:01:54.457Z,4.37
2019-02-20T07:02:54.470Z,4.38
2019-02-20T07:03:54.350Z,4.46
2019-02-20T07:04:54.280Z,4.49
2019-02-20T07:05:54.292Z,4.52
2019-02-20T07:06:54.199Z,4.55
2019-02-20T07:07:54.118Z,4.48
2019-02-20T07:08:54.064Z,4.51
2019-02-20T07:09:54.018Z,4.51
2019-02-20T07:10:53.967Z,4.58
2019-02-20T07:11:53.920Z,4.67
2019-02-20T07:12:53.847Z,4.63
2019-02-20T07:13:53.783Z,4.71
2019-02-20T07:14:53.732Z,4.73
2019-02-20T07:15:53.678Z,4.74
2019-02-20T07:16:53.635Z,4.86
2019-02-20T07:17:53.569Z,4.86
2019-02-20T07:18:53.508Z,4.80
2019-02-20T07:19:53.450Z,4.90
2019-02-20T07:20:53.390Z,4.92
2019-02-20T07:21:53.367Z,4.93
2019-02-20T07:22:53.284Z,4.96
2019-02-20T07:23:53.229Z,5.10
2019-02-20T07:24:53.173Z,5.03
2019-02-20T07:25:53.112Z,5.07
2019-02-20T07:26:53.108Z,5.04
2019-02-20T07:27:53.034Z,5.07
2019-02-20T07:28:52.967Z,5.17
2019-02-20T07:29:52.901Z,5.21
2019-02-20T07:30:52.854Z,5.29
2019-02-20T07:31:52.810Z,5.29
2019-02-20T07:32:52.737Z,5.33
2019-02-20T07:33:52.671Z,5.31
2019-02-20T07:34:52.632Z,5.32
2019-02-20T07:35:52.593Z,5.33
2019-02-20T07:36:52.553Z,5.35
2019-02-20T07:37:52.461Z,5.40
2019-02-20T07:38:52.451Z,5.40
2019-02-20T07:39:52.350Z,5.47
2019-02-20T07:40:52.303Z,5.49
2019-02-20T07:41:52.291Z,5.44
2019-02-20T07:42:52.183Z,5.50
2019-02-20T07:43:52.153Z,5.53
2019-02-20T07:44:52.080Z,5.67
2019-02-20T07:45:52.032Z,5.64
2019-02-20T07:46:51.998Z,5.62
2019-02-20T07:47:51.917Z,5.71
2019-02-20T07:48:51.881Z,5.71
2019-02-20T07:49:51.802Z,5.71
2019-02-20T07:50:51.760Z,5.71
2019-02-20T07:51:51.708Z,5.79
2019-02-20T07:52:51.639Z,5.76
2019-02-20T07:53:51.591Z,5.80
2019-02-20T07:54:51.533Z,5.77
2019-02-20T07:55:51.468Z,5.86
2019-02-20T07:56:51.525Z,5.85
2019-02-20T07:57:51.377Z,5.89
2019-02-20T07:58:51.312Z,5.80
2019-02-20T07:59:51.258Z,5.97
2019-02-20T08:00:51.194Z,5.92
2019-02-20T08:01:51.153Z,5.97
2019-02-20T08:02:51.126Z,5.95
2019-02-20T08:03:51.049Z,6.00
2019-02-20T08:04:50.987Z,6.04
2019-02-20T08:05:50.932Z,6.05
2019-02-20T08:06:50.882Z,6.04
2019-02-20T08:07:50.862Z,6.08
2019-02-20T08:08:50.764Z,6.04
2019-02-20T08:09:50.699Z,6.16
2019-02-20T08:10:50.651Z,6.16
2019-02-20T08:11:50.631Z,6.18
2019-02-20T08:12:50.766Z,6.22
2019-02-20T08:13:50.520Z,6.21
2019-02-20T08:14:50.437Z,6.30
2019-02-20T08:15:50.408Z,6.30
2019-02-20T08:16:52.639Z,6.21
2019-02-20T08:17:50.303Z,6.26
2019-02-20T08:18:50.228Z,6.29
2019-02-20T08:19:50.158Z,6.32
2019-02-20T08:20:50.110Z,6.32
2019-02-20T08:21:50.061Z,6.34
2019-02-20T08:22:50.037Z,6.35
2019-02-20T08:23:49.941Z,6.32
2019-02-20T08:24:49.895Z,6.30
2019-02-20T08:25:49.838Z,6.35
2019-02-20T08:26:49.793Z,6.48
2019-02-20T08:27:49.769Z,6.44
2019-02-20T08:28:49.679Z,6.53
2019-02-20T08:29:49.633Z,6.47
2019-02-20T08:30:49.556Z,6.57
2019-02-20T08:31:49.532Z,6.62
2019-02-20T08:32:49.490Z,6.60
2019-02-20T08:33:49.396Z,6.60
2019-02-20T08:34:49.352Z,6.65
2019-02-20T08:35:49.304Z,6.75
2019-02-20T08:36:49.264Z,6.74
2019-02-20T08:37:49.223Z,6.65
2019-02-20T08:38:49.126Z,6.67
2019-02-20T08:39:49.079Z,6.70
2019-02-20T08:40:49.019Z,6.77
2019-02-20T08:41:48.989Z,6.73
2019-02-20T08:42:48.963Z,6.75
2019-02-20T08:43:48.882Z,6.78
2019-02-20T08:44:48.807Z,6.78
2019-02-20T08:45:48.744Z,6.78
2019-02-20T08:46:48.713Z,6.80
2019-02-20T08:47:48.691Z,6.93
2019-02-20T08:48:48.591Z,6.92
2019-02-20T08:49:48.560Z,6.91
2019-02-20T08:50:48.494Z,6.92
2019-02-20T08:51:48.429Z,6.95
2019-02-20T08:52:48.414Z,7.05
2019-02-20T08:53:48.318Z,7.05
2019-02-20T08:54:48.290Z,7.07
2019-02-20T08:55:48.220Z,7.14
2019-02-20T08:56:48.179Z,7.18
2019-02-20T08:57:48.164Z,7.18
2019-02-20T08:58:48.067Z,7.17
2019-02-20T08:59:48.004Z,7.20
2019-02-20T09:00:47.935Z,7.25
2019-02-20T09:01:47.883Z,7.26
2019-02-20T09:02:47.913Z,7.25
2019-02-20T09:03:47.794Z,7.29
2019-02-20T09:04:47.734Z,7.31
2019-02-20T09:05:47.684Z,7.31
2019-02-20T09:06:47.618Z,7.46
2019-02-20T09:07:47.593Z,7.36
2019-02-20T09:08:47.552Z,7.47
2019-02-20T09:09:47.454Z,7.49
2019-02-20T09:10:47.405Z,7.56
2019-02-20T09:11:47.344Z,7.59
2019-02-20T09:12:47.307Z,7.64
2019-02-20T09:13:47.286Z,7.66
2019-02-20T09:14:47.195Z,7.70
2019-02-20T09:15:47.154Z,7.72
2019-02-20T09:16:47.083Z,7.70
2019-02-20T09:17:47.071Z,7.68
2019-02-20T09:18:47.005Z,7.75
2019-02-20T09:19:46.916Z,7.78
2019-02-20T09:20:46.870Z,7.86
2019-02-20T09:21:46.813Z,7.87
2019-02-20T09:22:46.782Z,7.88
2019-02-20T09:23:46.740Z,7.96
2019-02-20T09:24:46.665Z,8.04
2019-02-20T09:25:46.601Z,7.97
2019-02-20T09:26:46.541Z,8.01
2019-02-20T09:27:46.504Z,8.01
2019-02-20T09:28:46.471Z,8.01
2019-02-20T09:29:46.380Z,8.04
2019-02-20T09:30:46.347Z,8.02
2019-02-20T09:31:46.306Z,8.11
2019-02-20T09:32:46.229Z,8.08
2019-02-20T09:33:46.206Z,8.20
2019-02-20T09:34:46.130Z,8.21
2019-02-20T09:35:46.076Z,8.23
2019-02-20T09:36:46.044Z,8.27
2019-02-20T09:37:45.982Z,8.24
2019-02-20T09:38:45.983Z,8.24
2019-02-20T09:39:45.852Z,8.24
2019-02-20T09:40:45.805Z,8.21
2019-02-20T09:41:45.758Z,8.15
2019-02-20T09:42:45.692Z,8.29
2019-02-20T09:43:45.682Z,8.31
2019-02-20T09:44:45.581Z,8.33
2019-02-20T09:45:45.533Z,8.27
2019-02-20T09:46:45.483Z,8.33
2019-02-20T09:47:45.434Z,8.24
2019-02-20T09:48:45.418Z,8.27
2019-02-20T09:49:45.332Z,8.36
2019-02-20T09:50:45.284Z,8.29
2019-02-20T09:51:45.236Z,8.42
2019-02-20T09:52:51.883Z,8.42
2019-02-20T09:53:45.168Z,8.52
2019-02-20T09:54:45.091Z,8.59
2019-02-20T09:55:51.132Z,8.45
2019-02-20T09:56:44.950Z,8.60
2019-02-20T09:57:44.901Z,8.57
2019-02-20T09:58:44.850Z,8.64
2019-02-20T09:59:44.816Z,8.63
2019-02-20T10:00:44.742Z,8.69
2019-02-20T10:01:44.695Z,8.67
2019-02-20T10:02:44.649Z,8.66
2019-02-20T10:03:44.605Z,8.69
2019-02-20T10:04:44.568Z,8.66
2019-02-20T10:05:44.476Z,8.57
2019-02-20T10:06:44.749Z,8.62
2019-02-20T10:07:44.375Z,8.67
2019-02-20T10:08:44.323Z,8.72
2019-02-20T10:09:44.297Z,8.85
2019-02-20T10:10:44.215Z,8.80
2019-02-20T10:11:44.177Z,8.78
2019-02-20T10:12:44.121Z,8.82
2019-02-20T10:13:44.066Z,8.78
2019-02-20T10:14:44.034Z,8.69
2019-02-20T10:15:43.962Z,8.67
2019-02-20T10:16:43.906Z,8.75
2019-02-20T10:17:43.861Z,8.69
2019-02-20T10:18:43.815Z,8.69
2019-02-20T10:19:43.770Z,8.75
2019-02-20T10:20:43.685Z,8.84
2019-02-20T10:21:43.638Z,8.85
2019-02-20T10:22:43.595Z,8.91
2019-02-20T10:23:45.275Z,9.00
2019-02-20T10:24:43.507Z,9.00
2019-02-20T10:25:43.435Z,9.03
2019-02-20T10:26:43.384Z,8.93
2019-02-20T10:27:43.340Z,8.99
2019-02-20T10:28:43.279Z,9.03
2019-02-20T10:29:43.275Z,9.08
2019-02-20T10:30:43.175Z,9.15
2019-02-20T10:31:43.121Z,9.18
2019-02-20T10:32:43.072Z,9.18
2019-02-20T10:33:43.013Z,9.33
2019-02-20T10:34:42.996Z,9.32
2019-02-20T10:35:42.902Z,9.33
2019-02-20T10:36:42.858Z,9.29
2019-02-20T10:37:42.810Z,9.34
2019-02-20T10:38:42.747Z,9.36
2019-02-20T10:39:42.735Z,9.42
2019-02-20T10:40:42.649Z,9.44
2019-02-20T10:41:42.598Z,9.46
2019-02-20T10:42:42.547Z,9.42
2019-02-20T10:43:42.503Z,9.44
2019-02-20T10:44:42.489Z,9.47
2019-02-20T10:45:42.403Z,9.47
2019-02-20T10:46:42.345Z,9.51
2019-02-20T10:47:42.277Z,9.52
2019-02-20T10:48:42.259Z,9.51
2019-02-20T10:49:42.179Z,9.46
2019-02-20T10:50:42.161Z,9.43
2019-02-20T10:51:42.082Z,9.42
2019-02-20T10:52:42.027Z,9.51
2019-02-20T10:53:41.964Z,9.49
2019-02-20T10:54:41.929Z,9.47
2019-02-20T10:55:41.893Z,9.55
2019-02-20T10:56:41.803Z,9.57
2019-02-20T10:57:41.764Z,9.58
2019-02-20T10:58:41.767Z,9.51
2019-02-20T10:59:41.653Z,9.49
2019-02-20T11:00:41.625Z,9.47
2019-02-20T11:01:41.568Z,9.52
2019-02-20T11:02:41.509Z,9.47
2019-02-20T11:03:41.457Z,9.52
2019-02-20T11:04:41.396Z,9.44
2019-02-20T11:05:41.364Z,9.58
2019-02-20T11:06:41.356Z,9.54
2019-02-20T11:07:41.252Z,9.52
2019-02-20T11:08:41.209Z,9.52
2019-02-20T11:09:41.148Z,9.54
2019-02-20T11:10:41.111Z,9.52
2019-02-20T11:11:41.037Z,9.64
2019-02-20T11:12:40.979Z,9.65
2019-02-20T11:13:40.934Z,9.72
2019-02-20T11:14:40.876Z,9.70
2019-02-20T11:15:40.851Z,9.70
2019-02-20T11:16:40.780Z,9.79
2019-02-20T11:17:40.740Z,9.83
2019-02-20T11:18:40.668Z,9.83
2019-02-20T11:19:40.621Z,9.93
2019-02-20T11:20:48.123Z,9.95
2019-02-20T11:21:40.542Z,9.98
2019-02-20T11:22:40.473Z,10.00
2019-02-20T11:23:40.415Z,9.98
2019-02-20T11:24:40.355Z,10.00
2019-02-20T11:25:40.355Z,10.00
2019-02-20T11:26:50.346Z,10.08
2019-02-20T11:27:40.211Z,9.97
2019-02-20T11:28:40.150Z,9.98
2019-02-20T11:29:40.155Z,9.97
2019-02-20T11:30:40.366Z,9.97
2019-02-20T11:31:40.032Z,10.04
2019-02-20T11:32:39.947Z,9.97
2019-02-20T11:33:39.903Z,10.10
2019-02-20T11:34:39.847Z,10.02
2019-02-20T11:35:39.825Z,10.13
2019-02-20T11:36:40.540Z,10.02
2019-02-20T11:37:39.684Z,10.02
2019-02-20T11:38:39.637Z,10.08
2019-02-20T11:39:39.587Z,10.06
2019-02-20T11:40:39.577Z,10.13
2019-02-20T11:41:39.484Z,10.09
2019-02-20T11:42:39.439Z,10.16
2019-02-20T11:43:39.403Z,10.08
2019-02-20T11:44:39.341Z,10.09
2019-02-20T11:45:39.290Z,10.28
2019-02-20T11:46:39.249Z,10.28
2019-02-20T11:47:39.181Z,10.30
2019-02-20T11:48:39.146Z,10.33
2019-02-20T11:49:39.076Z,10.23
2019-02-20T11:50:39.051Z,10.23
2019-02-20T11:51:39.014Z,10.19
2019-02-20T11:52:38.927Z,10.33
2019-02-20T11:53:38.874Z,10.22
2019-02-20T11:54:38.814Z,10.19
2019-02-20T11:55:38.767Z,10.26
2019-02-20T11:56:38.739Z,10.22
2019-02-20T11:57:38.661Z,10.30
2019-02-20T11:58:38.618Z,10.23
2019-02-20T11:59:38.564Z,10.30
2019-02-20T12:00:38.556Z,10.27
2019-02-20T12:01:38.490Z,10.30
2019-02-20T12:02:38.406Z,10.31
2019-02-20T12:03:38.368Z,10.35
2019-02-20T12:04:38.312Z,10.35
2019-02-20T12:05:38.292Z,10.45
2019-02-20T12:06:38.249Z,10.48
2019-02-20T12:07:38.146Z,10.57
2019-02-20T12:08:38.166Z,10.60
2019-02-20T12:09:38.043Z,10.68
2019-02-20T12:10:37.987Z,10.74
2019-02-20T12:11:37.967Z,10.64
2019-02-20T12:12:37.891Z,10.64
2019-02-20T12:13:37.834Z,10.68
2019-02-20T12:14:37.810Z,10.79
2019-02-20T12:15:37.747Z,10.71
2019-02-20T12:16:37.711Z,10.82
2019-02-20T12:17:37.640Z,10.79
2019-02-20T12:18:37.610Z,10.85
2019-02-20T12:19:39.294Z,10.79
2019-02-20T12:20:37.481Z,10.82
2019-02-20T12:21:37.457Z,10.78
2019-02-20T12:22:37.379Z,10.86
2019-02-20T12:23:37.336Z,10.86
2019-02-20T12:24:37.290Z,10.85
2019-02-20T12:25:37.237Z,10.86
2019-02-20T12:26:37.202Z,10.82
2019-02-20T12:27:37.158Z,10.82
2019-02-20T12:28:37.093Z,10.75
2019-02-20T12:29:37.048Z,10.77
2019-02-20T12:30:38.079Z,10.71
2019-02-20T12:31:36.986Z,10.79
2019-02-20T12:32:36.871Z,10.77
2019-02-20T12:33:36.834Z,10.83
2019-02-20T12:34:36.807Z,10.70
2019-02-20T12:35:36.721Z,10.78
2019-02-20T12:36:36.699Z,10.72
2019-02-20T12:37:36.605Z,10.77
2019-02-20T12:38:37.271Z,10.68
2019-02-20T12:39:36.508Z,10.78
2019-02-20T12:40:36.454Z,10.78
2019-02-20T12:41:36.424Z,10.77
2019-02-20T12:42:36.457Z,10.71
2019-02-20T12:43:36.299Z,10.78
2019-02-20T12:44:36.261Z,10.77
2019-02-20T12:45:36.222Z,10.77
2019-02-20T12:46:36.153Z,10.83
2019-02-20T12:47:36.160Z,10.83
2019-02-20T12:48:36.044Z,10.90
2019-02-20T12:49:35.999Z,10.82
2019-02-20T12:50:35.953Z,10.82
2019-02-20T12:51:35.896Z,10.86
2019-02-20T12:52:35.866Z,11.01
2019-02-20T12:53:35.797Z,11.00
2019-02-20T12:54:35.734Z,11.01
2019-02-20T12:55:35.705Z,11.05
2019-02-20T12:56:43.439Z,11.08
2019-02-20T12:57:35.616Z,11.10
2019-02-20T12:58:35.532Z,11.07
2019-02-20T12:59:36.754Z,11.07
2019-02-20T13:00:35.472Z,11.05
2019-02-20T13:01:35.378Z,11.00
2019-02-20T13:02:36.099Z,11.05
2019-02-20T13:03:35.288Z,11.00
2019-02-20T13:04:35.229Z,11.05
2019-02-20T13:05:35.184Z,11.01
2019-02-20T13:06:35.140Z,10.96
2019-02-20T13:07:35.103Z,11.00
2019-02-20T13:08:35.030Z,11.00
2019-02-20T13:09:34.968Z,11.10
2019-02-20T13:10:34.923Z,10.96
2019-02-20T13:11:34.877Z,11.10
2019-02-20T13:12:34.845Z,11.12
2019-02-20T13:13:34.779Z,11.08